Austin, Texas
Traffic Map
Current Weather Conditions
Austin, Texas
Broken Clouds Haze
Broken Clouds
76°
Feels Like: 76°
Wind Chill: 76° Ceiling: 800
Heat Index: 76° Visibility: 6mi
Dew Point: 75° Wind: 3mph
Humidity: 97% Direction: ° ()
Pressure: 30.1in Gusts: 0mph
Raw Report DataKATT 260951Z AUTO VRB03KT 6SM BR BKN008 BKN016 24/24 A3010 RMK AO2 SLP180 T02440239
Traffic Incident Summary
Active as of:
Severity:
Category:
InformationThere was an issue retrieving the traffic information for this location. Please try a different location or try again shortly.
Advertisements
Track Severe Weather on mobile